sensor_id;sensor_type;location;lat;lon;timestamp;temperature;humidity
43858;DHT22;29507;51.284;5.758;2023-04-01T00:01:24;9.10;99.90
43858;DHT22;29507;51.284;5.758;2023-04-01T00:03:50;9.00;99.90
43858;DHT22;29507;51.284;5.758;2023-04-01T00:06:17;9.00;99.90
43858;DHT22;29507;51.284;5.758;2023-04-01T00:08:43;9.00;99.90
43858;DHT22;29507;51.284;5.758;2023-04-01T00:11:09;9.00;99.90
43858;DHT22;29507;51.284;5.758;2023-04-01T00:13:35;9.00;99.90
43858;DHT22;29507;51.284;5.758;2023-04-01T00:16:01;9.00;99.90
43858;DHT22;29507;51.284;5.758;2023-04-01T00:18:28;9.00;99.90
43858;DHT22;29507;51.284;5.758;2023-04-01T00:20:54;9.00;99.90
43858;DHT22;29507;51.284;5.758;2023-04-01T00:23:20;9.00;99.90
43858;DHT22;29507;51.284;5.758;2023-04-01T00:25:46;8.90;99.90
43858;DHT22;29507;51.284;5.758;2023-04-01T00:28:14;9.00;99.90
43858;DHT22;29507;51.284;5.758;2023-04-01T00:30:40;9.00;99.90
43858;DHT22;29507;51.284;5.758;2023-04-01T00:33:06;9.00;99.90
43858;DHT22;29507;51.284;5.758;2023-04-01T00:35:31;9.00;99.90
43858;DHT22;29507;51.284;5.758;2023-04-01T00:37:58;8.90;99.90
43858;DHT22;29507;51.284;5.758;2023-04-01T00:40:34;8.90;99.90
43858;DHT22;29507;51.284;5.758;2023-04-01T00:43:00;8.90;99.90
43858;DHT22;29507;51.284;5.758;2023-04-01T00:45:38;9.00;99.90
43858;DHT22;29507;51.284;5.758;2023-04-01T00:48:09;8.90;99.90
43858;DHT22;29507;51.284;5.758;2023-04-01T00:50:35;8.90;99.90
43858;DHT22;29507;51.284;5.758;2023-04-01T00:53:02;8.90;99.90
43858;DHT22;29507;51.284;5.758;2023-04-01T00:55:32;8.90;99.90
43858;DHT22;29507;51.284;5.758;2023-04-01T00:57:59;8.90;99.90
43858;DHT22;29507;51.284;5.758;2023-04-01T01:00:27;8.90;99.90
43858;DHT22;29507;51.284;5.758;2023-04-01T01:02:52;8.90;99.90
43858;DHT22;29507;51.284;5.758;2023-04-01T01:05:23;8.90;99.90
43858;DHT22;29507;51.284;5.758;2023-04-01T01:08:30;8.90;99.90
43858;DHT22;29507;51.284;5.758;2023-04-01T01:10:57;8.90;99.90
43858;DHT22;29507;51.284;5.758;2023-04-01T01:13:35;8.90;99.90
43858;DHT22;29507;51.284;5.758;2023-04-01T01:16:16;8.80;99.90
43858;DHT22;29507;51.284;5.758;2023-04-01T01:27:16;8.70;99.90
43858;DHT22;29507;51.284;5.758;2023-04-01T01:30:12;8.80;99.90
43858;DHT22;29507;51.284;5.758;2023-04-01T01:33:02;8.70;99.90
43858;DHT22;29507;51.284;5.758;2023-04-01T01:35:53;8.70;99.90
43858;DHT22;29507;51.284;5.758;2023-04-01T01:38:24;8.80;99.90
43858;DHT22;29507;51.284;5.758;2023-04-01T01:40:50;8.80;99.90
43858;DHT22;29507;51.284;5.758;2023-04-01T01:43:22;8.80;99.90
43858;DHT22;29507;51.284;5.758;2023-04-01T01:45:55;8.80;99.90
43858;DHT22;29507;51.284;5.758;2023-04-01T01:48:23;8.80;99.90
43858;DHT22;29507;51.284;5.758;2023-04-01T01:50:50;8.80;99.90
43858;DHT22;29507;51.284;5.758;2023-04-01T01:53:16;8.80;99.90
43858;DHT22;29507;51.284;5.758;2023-04-01T01:55:46;8.80;99.90
43858;DHT22;29507;51.284;5.758;2023-04-01T02:00:39;8.80;99.90
43858;DHT22;29507;51.284;5.758;2023-04-01T02:03:06;8.80;99.90
43858;DHT22;29507;51.284;5.758;2023-04-01T02:05:32;8.80;99.90
43858;DHT22;29507;51.284;5.758;2023-04-01T02:08:06;8.80;99.90
43858;DHT22;29507;51.284;5.758;2023-04-01T02:10:35;8.80;99.90
43858;DHT22;29507;51.284;5.758;2023-04-01T02:13:07;8.90;99.90
43858;DHT22;29507;51.284;5.758;2023-04-01T02:15:37;8.80;99.90
43858;DHT22;29507;51.284;5.758;2023-04-01T02:18:06;8.80;99.90
43858;DHT22;29507;51.284;5.758;2023-04-01T02:20:32;8.80;99.90
43858;DHT22;29507;51.284;5.758;2023-04-01T02:22:58;8.80;99.90
43858;DHT22;29507;51.284;5.758;2023-04-01T02:25:33;8.80;99.90
43858;DHT22;29507;51.284;5.758;2023-04-01T02:28:00;8.80;99.90
43858;DHT22;29507;51.284;5.758;2023-04-01T02:30:28;8.80;99.90
43858;DHT22;29507;51.284;5.758;2023-04-01T02:32:56;8.80;99.90
43858;DHT22;29507;51.284;5.758;2023-04-01T02:35:22;8.80;99.90
43858;DHT22;29507;51.284;5.758;2023-04-01T02:37:49;8.80;99.90
43858;DHT22;29507;51.284;5.758;2023-04-01T02:40:16;8.80;99.90
43858;DHT22;29507;51.284;5.758;2023-04-01T02:42:43;8.80;99.90
43858;DHT22;29507;51.284;5.758;2023-04-01T02:45:09;8.80;99.90
43858;DHT22;29507;51.284;5.758;2023-04-01T02:47:35;8.80;99.90
43858;DHT22;29507;51.284;5.758;2023-04-01T02:50:01;8.80;99.90
43858;DHT22;29507;51.284;5.758;2023-04-01T02:52:28;8.80;99.90
43858;DHT22;29507;51.284;5.758;2023-04-01T02:54:54;8.80;99.90
43858;DHT22;29507;51.284;5.758;2023-04-01T02:57:20;8.80;99.90
43858;DHT22;29507;51.284;5.758;2023-04-01T02:59:46;8.80;99.90
43858;DHT22;29507;51.284;5.758;2023-04-01T03:02:12;8.70;99.90
43858;DHT22;29507;51.284;5.758;2023-04-01T03:04:38;8.80;99.90
43858;DHT22;29507;51.284;5.758;2023-04-01T03:07:03;8.70;99.90
43858;DHT22;29507;51.284;5.758;2023-04-01T03:09:29;8.80;99.90
43858;DHT22;29507;51.284;5.758;2023-04-01T03:11:55;8.80;99.90
43858;DHT22;29507;51.284;5.758;2023-04-01T03:14:21;8.80;99.90
43858;DHT22;29507;51.284;5.758;2023-04-01T03:16:46;8.80;99.90
43858;DHT22;29507;51.284;5.758;2023-04-01T03:19:12;8.80;99.90
43858;DHT22;29507;51.284;5.758;2023-04-01T03:21:38;8.80;99.90
43858;DHT22;29507;51.284;5.758;2023-04-01T03:24:03;8.80;99.90
43858;DHT22;29507;51.284;5.758;2023-04-01T03:26:29;8.80;99.90
43858;DHT22;29507;51.284;5.758;2023-04-01T03:28:55;8.80;99.90
43858;DHT22;29507;51.284;5.758;2023-04-01T03:31:21;8.80;99.90
43858;DHT22;29507;51.284;5.758;2023-04-01T03:33:47;8.80;99.90
43858;DHT22;29507;51.284;5.758;2023-04-01T03:36:12;8.70;99.90
43858;DHT22;29507;51.284;5.758;2023-04-01T03:38:40;8.70;99.90
43858;DHT22;29507;51.284;5.758;2023-04-01T03:41:06;8.70;99.90
43858;DHT22;29507;51.284;5.758;2023-04-01T03:43:32;8.70;99.90
43858;DHT22;29507;51.284;5.758;2023-04-01T03:45:58;8.70;99.90
43858;DHT22;29507;51.284;5.758;2023-04-01T03:48:25;8.70;99.90
43858;DHT22;29507;51.284;5.758;2023-04-01T03:50:51;8.70;99.90
43858;DHT22;29507;51.284;5.758;2023-04-01T03:53:17;8.70;99.90
43858;DHT22;29507;51.284;5.758;2023-04-01T03:55:42;8.70;99.90
43858;DHT22;29507;51.284;5.758;2023-04-01T03:58:10;8.70;99.90
43858;DHT22;29507;51.284;5.758;2023-04-01T04:00:35;8.60;99.90
43858;DHT22;29507;51.284;5.758;2023-04-01T04:03:01;8.60;99.90
43858;DHT22;29507;51.284;5.758;2023-04-01T04:05:27;8.60;99.90
43858;DHT22;29507;51.284;5.758;2023-04-01T04:07:53;8.60;99.90
43858;DHT22;29507;51.284;5.758;2023-04-01T04:10:19;8.60;99.90
43858;DHT22;29507;51.284;5.758;2023-04-01T04:12:45;8.60;99.90
43858;DHT22;29507;51.284;5.758;2023-04-01T04:15:11;8.70;99.90
43858;DHT22;29507;51.284;5.758;2023-04-01T04:17:36;8.60;99.90
43858;DHT22;29507;51.284;5.758;2023-04-01T04:20:02;8.60;99.90
43858;DHT22;29507;51.284;5.758;2023-04-01T04:22:28;8.60;99.90
43858;DHT22;29507;51.284;5.758;2023-04-01T04:24:54;8.60;99.90
43858;DHT22;29507;51.284;5.758;2023-04-01T04:27:19;8.60;99.90
43858;DHT22;29507;51.284;5.758;2023-04-01T04:29:45;8.60;99.90
43858;DHT22;29507;51.284;5.758;2023-04-01T04:32:11;8.60;99.90
43858;DHT22;29507;51.284;5.758;2023-04-01T04:34:36;8.60;99.90
43858;DHT22;29507;51.284;5.758;2023-04-01T04:37:02;8.60;99.90
43858;DHT22;29507;51.284;5.758;2023-04-01T04:39:28;8.60;99.90
43858;DHT22;29507;51.284;5.758;2023-04-01T04:41:54;8.60;99.90
43858;DHT22;29507;51.284;5.758;2023-04-01T04:44:19;8.60;99.90
43858;DHT22;29507;51.284;5.758;2023-04-01T04:46:45;8.60;99.90
43858;DHT22;29507;51.284;5.758;2023-04-01T04:49:10;8.60;99.90
43858;DHT22;29507;51.284;5.758;2023-04-01T04:51:36;8.60;99.90
43858;DHT22;29507;51.284;5.758;2023-04-01T04:54:05;8.60;99.90
43858;DHT22;29507;51.284;5.758;2023-04-01T04:56:31;8.60;99.90
43858;DHT22;29507;51.284;5.758;2023-04-01T04:58:57;8.60;99.90
43858;DHT22;29507;51.284;5.758;2023-04-01T05:01:23;8.60;99.90
43858;DHT22;29507;51.284;5.758;2023-04-01T05:03:49;8.60;99.90
43858;DHT22;29507;51.284;5.758;2023-04-01T05:06:16;8.50;99.90
43858;DHT22;29507;51.284;5.758;2023-04-01T05:08:42;8.50;99.90
43858;DHT22;29507;51.284;5.758;2023-04-01T05:11:19;8.50;99.90
43858;DHT22;29507;51.284;5.758;2023-04-01T05:13:46;8.50;99.90
43858;DHT22;29507;51.284;5.758;2023-04-01T05:16:14;8.50;99.90
43858;DHT22;29507;51.284;5.758;2023-04-01T05:18:40;8.50;99.90
43858;DHT22;29507;51.284;5.758;2023-04-01T05:21:08;8.50;99.90
43858;DHT22;29507;51.284;5.758;2023-04-01T05:23:34;8.50;99.90
43858;DHT22;29507;51.284;5.758;2023-04-01T05:26:09;8.50;99.90
43858;DHT22;29507;51.284;5.758;2023-04-01T05:28:35;8.50;99.90
43858;DHT22;29507;51.284;5.758;2023-04-01T05:31:02;8.50;99.90
43858;DHT22;29507;51.284;5.758;2023-04-01T05:33:29;8.50;99.90
43858;DHT22;29507;51.284;5.758;2023-04-01T05:35:55;8.50;99.90
43858;DHT22;29507;51.284;5.758;2023-04-01T05:38:21;8.50;99.90
43858;DHT22;29507;51.284;5.758;2023-04-01T05:40:46;8.50;99.90
43858;DHT22;29507;51.284;5.758;2023-04-01T05:43:12;8.50;99.90
43858;DHT22;29507;51.284;5.758;2023-04-01T05:45:38;8.50;99.90
43858;DHT22;29507;51.284;5.758;2023-04-01T05:48:04;8.50;99.90
43858;DHT22;29507;51.284;5.758;2023-04-01T05:50:30;8.40;99.90
43858;DHT22;29507;51.284;5.758;2023-04-01T05:52:55;8.40;99.90
43858;DHT22;29507;51.284;5.758;2023-04-01T05:55:21;8.40;99.90
43858;DHT22;29507;51.284;5.758;2023-04-01T05:57:47;8.40;99.90
43858;DHT22;29507;51.284;5.758;2023-04-01T06:00:15;8.40;99.90
43858;DHT22;29507;51.284;5.758;2023-04-01T06:02:41;8.50;99.90
43858;DHT22;29507;51.284;5.758;2023-04-01T06:05:21;8.50;99.90
43858;DHT22;29507;51.284;5.758;2023-04-01T06:07:47;8.40;99.90
43858;DHT22;29507;51.284;5.758;2023-04-01T06:10:19;8.40;99.90
43858;DHT22;29507;51.284;5.758;2023-04-01T06:13:06;8.50;99.90
43858;DHT22;29507;51.284;5.758;2023-04-01T06:15:52;8.40;99.90
43858;DHT22;29507;51.284;5.758;2023-04-01T06:18:40;8.40;99.90
43858;DHT22;29507;51.284;5.758;2023-04-01T06:27:26;8.40;99.90
43858;DHT22;29507;51.284;5.758;2023-04-01T06:35:27;8.50;99.90
43858;DHT22;29507;51.284;5.758;2023-04-01T06:40:41;8.40;99.90
43858;DHT22;29507;51.284;5.758;2023-04-01T06:43:27;8.40;99.90
43858;DHT22;29507;51.284;5.758;2023-04-01T06:48:55;8.50;99.90
43858;DHT22;29507;51.284;5.758;2023-04-01T06:51:39;8.50;99.90
43858;DHT22;29507;51.284;5.758;2023-04-01T06:54:13;8.50;99.90
43858;DHT22;29507;51.284;5.758;2023-04-01T06:56:42;8.50;99.90
43858;DHT22;29507;51.284;5.758;2023-04-01T06:59:19;8.50;99.90
43858;DHT22;29507;51.284;5.758;2023-04-01T07:01:53;8.50;99.90
43858;DHT22;29507;51.284;5.758;2023-04-01T07:04:29;8.60;99.90
43858;DHT22;29507;51.284;5.758;2023-04-01T07:06:59;8.60;99.90
43858;DHT22;29507;51.284;5.758;2023-04-01T07:09:35;8.60;99.90
43858;DHT22;29507;51.284;5.758;2023-04-01T07:12:15;8.60;99.90
43858;DHT22;29507;51.284;5.758;2023-04-01T07:14:43;8.60;99.90
43858;DHT22;29507;51.284;5.758;2023-04-01T07:17:15;8.60;99.90
43858;DHT22;29507;51.284;5.758;2023-04-01T07:22:35;8.70;99.90
43858;DHT22;29507;51.284;5.758;2023-04-01T07:28:04;8.70;99.90
43858;DHT22;29507;51.284;5.758;2023-04-01T07:30:45;8.70;99.90
43858;DHT22;29507;51.284;5.758;2023-04-01T07:33:39;8.70;99.90
43858;DHT22;29507;51.284;5.758;2023-04-01T07:53:26;8.80;99.90
43858;DHT22;29507;51.284;5.758;2023-04-01T07:58:42;8.90;99.90
43858;DHT22;29507;51.284;5.758;2023-04-01T08:08:47;8.90;99.90
43858;DHT22;29507;51.284;5.758;2023-04-01T08:15:02;8.90;99.90
43858;DHT22;29507;51.284;5.758;2023-04-01T08:23:16;9.00;99.90
43858;DHT22;29507;51.284;5.758;2023-04-01T08:25:49;9.00;99.90
43858;DHT22;29507;51.284;5.758;2023-04-01T08:28:29;9.10;99.90
43858;DHT22;29507;51.284;5.758;2023-04-01T08:31:06;9.20;99.90
43858;DHT22;29507;51.284;5.758;2023-04-01T08:33:36;9.30;99.90
43858;DHT22;29507;51.284;5.758;2023-04-01T08:36:07;9.40;99.90
43858;DHT22;29507;51.284;5.758;2023-04-01T08:38:38;9.60;99.90
43858;DHT22;29507;51.284;5.758;2023-04-01T08:47:20;9.90;99.90
43858;DHT22;29507;51.284;5.758;2023-04-01T08:52:35;10.00;99.90
43858;DHT22;29507;51.284;5.758;2023-04-01T08:55:19;10.00;99.90
43858;DHT22;29507;51.284;5.758;2023-04-01T09:00:37;10.10;99.90
43858;DHT22;29507;51.284;5.758;2023-04-01T09:08:33;10.40;99.90
43858;DHT22;29507;51.284;5.758;2023-04-01T09:27:56;11.00;99.90
43858;DHT22;29507;51.284;5.758;2023-04-01T09:41:25;11.90;99.90
43858;DHT22;29507;51.284;5.758;2023-04-01T09:44:02;11.70;99.90
43858;DHT22;29507;51.284;5.758;2023-04-01T09:46:35;11.50;99.90
43858;DHT22;29507;51.284;5.758;2023-04-01T09:52:16;11.20;99.90
43858;DHT22;29507;51.284;5.758;2023-04-01T09:57:53;10.90;99.90
43858;DHT22;29507;51.284;5.758;2023-04-01T10:00:35;10.60;99.90
43858;DHT22;29507;51.284;5.758;2023-04-01T10:41:46;9.90;99.90
43858;DHT22;29507;51.284;5.758;2023-04-01T10:44:35;9.90;99.90
43858;DHT22;29507;51.284;5.758;2023-04-01T10:47:28;9.90;99.90
43858;DHT22;29507;51.284;5.758;2023-04-01T10:59:15;10.20;99.90
43858;DHT22;29507;51.284;5.758;2023-04-01T11:08:15;10.20;99.90
43858;DHT22;29507;51.284;5.758;2023-04-01T11:33:11;10.40;99.90
43858;DHT22;29507;51.284;5.758;2023-04-01T11:38:22;10.50;99.90
43858;DHT22;29507;51.284;5.758;2023-04-01T11:43:25;10.70;99.90
43858;DHT22;29507;51.284;5.758;2023-04-01T11:46:09;10.50;99.90
43858;DHT22;29507;51.284;5.758;2023-04-01T11:51:47;10.50;99.90
43858;DHT22;29507;51.284;5.758;2023-04-01T12:00:15;10.40;99.90
43858;DHT22;29507;51.284;5.758;2023-04-01T12:13:40;10.30;99.90
43858;DHT22;29507;51.284;5.758;2023-04-01T12:21:38;10.40;99.90
43858;DHT22;29507;51.284;5.758;2023-04-01T12:27:04;10.30;99.90
43858;DHT22;29507;51.284;5.758;2023-04-01T12:38:48;10.50;99.90
43858;DHT22;29507;51.284;5.758;2023-04-01T12:41:24;10.60;99.90
43858;DHT22;29507;51.284;5.758;2023-04-01T12:47:11;10.60;99.90
43858;DHT22;29507;51.284;5.758;2023-04-01T12:49:55;10.60;99.90
43858;DHT22;29507;51.284;5.758;2023-04-01T12:52:42;10.60;99.90
43858;DHT22;29507;51.284;5.758;2023-04-01T12:55:39;10.60;99.90
43858;DHT22;29507;51.284;5.758;2023-04-01T13:01:25;10.40;99.90
43858;DHT22;29507;51.284;5.758;2023-04-01T13:09:21;10.10;99.90
43858;DHT22;29507;51.284;5.758;2023-04-01T13:12:16;10.10;99.90
43858;DHT22;29507;51.284;5.758;2023-04-01T13:23:14;10.40;99.90
43858;DHT22;29507;51.284;5.758;2023-04-01T13:29:09;10.30;99.90
43858;DHT22;29507;51.284;5.758;2023-04-01T13:34:41;10.30;99.90
43858;DHT22;29507;51.284;5.758;2023-04-01T13:37:49;10.30;99.90
43858;DHT22;29507;51.284;5.758;2023-04-01T13:40:41;10.30;99.90
43858;DHT22;29507;51.284;5.758;2023-04-01T13:43:24;10.20;99.90
43858;DHT22;29507;51.284;5.758;2023-04-01T14:00:19;9.90;99.90
43858;DHT22;29507;51.284;5.758;2023-04-01T14:11:32;9.90;99.90
43858;DHT22;29507;51.284;5.758;2023-04-01T14:27:34;9.90;99.90
43858;DHT22;29507;51.284;5.758;2023-04-01T14:32:49;9.90;99.90
43858;DHT22;29507;51.284;5.758;2023-04-01T14:40:34;9.90;99.90
43858;DHT22;29507;51.284;5.758;2023-04-01T14:49:00;9.80;99.90
43858;DHT22;29507;51.284;5.758;2023-04-01T14:51:36;9.70;99.90
43858;DHT22;29507;51.284;5.758;2023-04-01T14:54:16;9.70;99.90
43858;DHT22;29507;51.284;5.758;2023-04-01T14:57:11;9.70;99.90
43858;DHT22;29507;51.284;5.758;2023-04-01T14:59:49;9.70;99.90
43858;DHT22;29507;51.284;5.758;2023-04-01T15:02:37;9.60;99.90
43858;DHT22;29507;51.284;5.758;2023-04-01T15:05:31;9.60;99.90
43858;DHT22;29507;51.284;5.758;2023-04-01T15:13:44;9.50;99.90
43858;DHT22;29507;51.284;5.758;2023-04-01T15:24:48;9.40;99.90
43858;DHT22;29507;51.284;5.758;2023-04-01T15:27:30;9.40;99.90
43858;DHT22;29507;51.284;5.758;2023-04-01T15:41:16;9.30;99.90
43858;DHT22;29507;51.284;5.758;2023-04-01T15:43:50;9.30;99.90
43858;DHT22;29507;51.284;5.758;2023-04-01T15:46:46;9.20;99.90
43858;DHT22;29507;51.284;5.758;2023-04-01T15:49:28;9.20;99.90
43858;DHT22;29507;51.284;5.758;2023-04-01T15:54:55;9.20;99.90
43858;DHT22;29507;51.284;5.758;2023-04-01T15:57:29;9.10;99.90
43858;DHT22;29507;51.284;5.758;2023-04-01T16:03:16;9.10;99.90
43858;DHT22;29507;51.284;5.758;2023-04-01T16:22:39;9.20;99.90
43858;DHT22;29507;51.284;5.758;2023-04-01T16:25:36;9.20;99.90
43858;DHT22;29507;51.284;5.758;2023-04-01T16:31:00;9.20;99.90
43858;DHT22;29507;51.284;5.758;2023-04-01T16:33:46;9.20;99.90
43858;DHT22;29507;51.284;5.758;2023-04-01T16:47:17;9.10;99.90
43858;DHT22;29507;51.284;5.758;2023-04-01T16:50:21;9.10;99.90
43858;DHT22;29507;51.284;5.758;2023-04-01T16:53:10;9.10;99.90
43858;DHT22;29507;51.284;5.758;2023-04-01T16:55:57;9.10;99.90
43858;DHT22;29507;51.284;5.758;2023-04-01T17:01:23;9.00;99.90
43858;DHT22;29507;51.284;5.758;2023-04-01T17:04:01;9.00;99.90
43858;DHT22;29507;51.284;5.758;2023-04-01T17:07:11;8.90;99.90
43858;DHT22;29507;51.284;5.758;2023-04-01T17:10:01;8.90;99.90
43858;DHT22;29507;51.284;5.758;2023-04-01T17:15:45;8.90;99.90
43858;DHT22;29507;51.284;5.758;2023-04-01T17:21:10;8.80;99.90
43858;DHT22;29507;51.284;5.758;2023-04-01T17:23:48;8.90;99.90
43858;DHT22;29507;51.284;5.758;2023-04-01T17:31:18;8.80;99.90
43858;DHT22;29507;51.284;5.758;2023-04-01T17:34:04;8.80;99.90
43858;DHT22;29507;51.284;5.758;2023-04-01T17:39:31;8.70;99.90
43858;DHT22;29507;51.284;5.758;2023-04-01T17:55:51;8.70;99.90
43858;DHT22;29507;51.284;5.758;2023-04-01T17:58:33;8.70;99.90
43858;DHT22;29507;51.284;5.758;2023-04-01T18:16:58;8.60;99.90
43858;DHT22;29507;51.284;5.758;2023-04-01T18:25:12;8.60;99.90
43858;DHT22;29507;51.284;5.758;2023-04-01T18:27:42;8.60;99.90
43858;DHT22;29507;51.284;5.758;2023-04-01T18:30:27;8.60;99.90
43858;DHT22;29507;51.284;5.758;2023-04-01T18:33:18;8.60;99.90
43858;DHT22;29507;51.284;5.758;2023-04-01T18:36:09;8.60;99.90
43858;DHT22;29507;51.284;5.758;2023-04-01T18:41:20;8.60;99.90
43858;DHT22;29507;51.284;5.758;2023-04-01T18:46:45;8.70;99.90
43858;DHT22;29507;51.284;5.758;2023-04-01T18:49:21;8.70;99.90
43858;DHT22;29507;51.284;5.758;2023-04-01T19:00:28;8.90;99.90
43858;DHT22;29507;51.284;5.758;2023-04-01T19:03:10;8.90;99.90
43858;DHT22;29507;51.284;5.758;2023-04-01T19:05:39;8.90;99.90
43858;DHT22;29507;51.284;5.758;2023-04-01T19:08:20;9.00;99.90
43858;DHT22;29507;51.284;5.758;2023-04-01T19:11:06;9.00;99.90
43858;DHT22;29507;51.284;5.758;2023-04-01T19:13:41;9.30;99.90
43858;DHT22;29507;51.284;5.758;2023-04-01T19:16:36;9.40;99.90
43858;DHT22;29507;51.284;5.758;2023-04-01T19:25:02;9.50;99.90
43858;DHT22;29507;51.284;5.758;2023-04-01T19:27:49;9.60;99.90
43858;DHT22;29507;51.284;5.758;2023-04-01T19:30:25;9.60;99.90
43858;DHT22;29507;51.284;5.758;2023-04-01T19:33:06;9.60;99.90
43858;DHT22;29507;51.284;5.758;2023-04-01T19:35:49;9.50;99.90
43858;DHT22;29507;51.284;5.758;2023-04-01T19:38:37;9.40;99.90
43858;DHT22;29507;51.284;5.758;2023-04-01T19:41:22;9.30;99.90
43858;DHT22;29507;51.284;5.758;2023-04-01T19:43:55;9.30;99.90
43858;DHT22;29507;51.284;5.758;2023-04-01T19:46:55;9.30;99.90
43858;DHT22;29507;51.284;5.758;2023-04-01T19:52:14;9.30;99.90
43858;DHT22;29507;51.284;5.758;2023-04-01T19:57:56;9.20;99.90
43858;DHT22;29507;51.284;5.758;2023-04-01T20:00:32;9.10;99.90
43858;DHT22;29507;51.284;5.758;2023-04-01T20:06:15;9.10;99.90
43858;DHT22;29507;51.284;5.758;2023-04-01T20:11:37;9.10;99.90
43858;DHT22;29507;51.284;5.758;2023-04-01T20:14:26;9.00;99.90
43858;DHT22;29507;51.284;5.758;2023-04-01T20:27:50;8.90;99.90
43858;DHT22;29507;51.284;5.758;2023-04-01T20:33:35;9.00;99.90
43858;DHT22;29507;51.284;5.758;2023-04-01T20:50:29;8.70;99.90
43858;DHT22;29507;51.284;5.758;2023-04-01T20:53:16;8.80;99.90
43858;DHT22;29507;51.284;5.758;2023-04-01T21:11:43;8.60;99.90
43858;DHT22;29507;51.284;5.758;2023-04-01T21:14:45;8.40;99.90
43858;DHT22;29507;51.284;5.758;2023-04-01T21:20:39;8.40;99.90
43858;DHT22;29507;51.284;5.758;2023-04-01T21:32:46;8.30;99.90
43858;DHT22;29507;51.284;5.758;2023-04-01T21:38:00;8.30;99.90
43858;DHT22;29507;51.284;5.758;2023-04-01T21:40:44;8.20;99.90
43858;DHT22;29507;51.284;5.758;2023-04-01T21:46:11;8.20;99.90
43858;DHT22;29507;51.284;5.758;2023-04-01T21:49:21;8.10;99.90
43858;DHT22;29507;51.284;5.758;2023-04-01T21:54:47;8.10;99.90
43858;DHT22;29507;51.284;5.758;2023-04-01T22:08:41;8.10;99.90
43858;DHT22;29507;51.284;5.758;2023-04-01T22:11:57;8.10;99.90
43858;DHT22;29507;51.284;5.758;2023-04-01T22:14:50;8.10;99.90
43858;DHT22;29507;51.284;5.758;2023-04-01T22:17:28;8.20;99.90
43858;DHT22;29507;51.284;5.758;2023-04-01T22:22:49;8.20;99.90
43858;DHT22;29507;51.284;5.758;2023-04-01T22:25:28;8.10;99.90
43858;DHT22;29507;51.284;5.758;2023-04-01T22:30:49;8.00;99.90
43858;DHT22;29507;51.284;5.758;2023-04-01T22:41:01;7.80;99.90
43858;DHT22;29507;51.284;5.758;2023-04-01T22:43:48;7.80;99.90
43858;DHT22;29507;51.284;5.758;2023-04-01T22:46:51;7.80;99.90
43858;DHT22;29507;51.284;5.758;2023-04-01T22:49:32;7.70;99.90
43858;DHT22;29507;51.284;5.758;2023-04-01T22:52:13;7.70;99.90
43858;DHT22;29507;51.284;5.758;2023-04-01T22:54:49;7.60;99.90
43858;DHT22;29507;51.284;5.758;2023-04-01T23:05:52;7.60;99.90
43858;DHT22;29507;51.284;5.758;2023-04-01T23:11:22;7.50;99.90
43858;DHT22;29507;51.284;5.758;2023-04-01T23:13:57;7.60;99.90
43858;DHT22;29507;51.284;5.758;2023-04-01T23:16:37;7.50;99.90
43858;DHT22;29507;51.284;5.758;2023-04-01T23:20:24;7.50;99.90
43858;DHT22;29507;51.284;5.758;2023-04-01T23:22:46;7.60;99.90
43858;DHT22;29507;51.284;5.758;2023-04-01T23:36:13;7.30;99.90
43858;DHT22;29507;51.284;5.758;2023-04-01T23:38:42;7.20;99.90
43858;DHT22;29507;51.284;5.758;2023-04-01T23:41:16;7.20;99.90
43858;DHT22;29507;51.284;5.758;2023-04-01T23:43:45;7.20;99.90
43858;DHT22;29507;51.284;5.758;2023-04-01T23:46:14;7.10;99.90
43858;DHT22;29507;51.284;5.758;2023-04-01T23:48:43;7.10;99.90
43858;DHT22;29507;51.284;5.758;2023-04-01T23:53:45;7.10;99.90
43858;DHT22;29507;51.284;5.758;2023-04-01T23:56:11;7.10;99.90
43858;DHT22;29507;51.284;5.758;2023-04-01T23:58:47;7.00;99.90
